Time;durP1;ratioP1;P1;durP2;ratioP2;P2;SDS_P1;SDS_P2;PMS_P1;PMS_P2;Temp;Humidity;BMP_temperature;BMP_pressure;BME280_temperature;BME280_humidity;BME280_pressure;Samples;Min_cycle;Max_cycle;Signal;HPM_P1;HPM_P2
2022/10/02 00:01:26;;;;;;;8.37;2.67;;;12.50;99.90;;;;;;5037447;28;20427;-78
2022/10/02 00:03:55;;;;;;;6.50;2.90;;;12.50;99.90;;;;;;5037910;28;20519;-77
2022/10/02 00:06:25;;;;;;;7.73;3.03;;;12.50;99.90;;;;;;5037572;28;20451;-77
2022/10/02 00:08:59;;;;;;;8.80;2.70;;;12.50;99.90;;;;;;5037471;28;20893;-78
2022/10/02 00:11:35;;;;;;;4.83;2.50;;;12.50;99.90;;;;;;5036265;28;20972;-78
2022/10/02 00:14:06;;;;;;;4.97;2.73;;;12.50;99.90;;;;;;5036137;28;20841;-77
2022/10/02 00:16:39;;;;;;;7.80;2.37;;;12.50;99.90;;;;;;5036237;28;20466;-78
2022/10/02 00:19:11;;;;;;;6.73;2.53;;;12.50;99.90;;;;;;5036172;28;20933;-78
2022/10/02 00:21:53;;;;;;;6.47;2.40;;;12.50;99.90;;;;;;5037157;28;20422;-77
2022/10/02 00:24:26;;;;;;;6.30;2.63;;;12.50;99.90;;;;;;5036780;28;20465;-78
2022/10/02 00:27:00;;;;;;;5.90;3.00;;;12.50;99.90;;;;;;5036078;28;20450;-78
2022/10/02 00:29:39;;;;;;;5.50;2.80;;;12.50;99.90;;;;;;5035708;28;20443;-78
2022/10/02 00:32:19;;;;;;;7.10;2.87;;;12.50;99.90;;;;;;5036471;28;20467;-78
2022/10/02 00:35:02;;;;;;;7.50;2.93;;;12.50;99.90;;;;;;5035511;28;21034;-77
2022/10/02 00:37:42;;;;;;;7.03;3.20;;;12.50;99.90;;;;;;5035981;28;20473;-78
2022/10/02 00:40:37;;;;;;;8.43;3.10;;;12.50;99.90;;;;;;5035598;28;20445;-78
2022/10/02 00:43:20;;;;;;;10.57;3.77;;;12.50;99.90;;;;;;5037156;28;20436;-78
2022/10/02 00:46:06;;;;;;;6.97;3.10;;;12.50;99.90;;;;;;5036025;28;20442;-78
2022/10/02 00:48:51;;;;;;;6.10;2.80;;;12.50;99.90;;;;;;5036377;28;20443;-78
2022/10/02 00:51:35;;;;;;;7.90;3.10;;;12.50;99.90;;;;;;5037617;28;20427;-78
2022/10/02 00:54:17;;;;;;;7.37;3.60;;;12.50;99.90;;;;;;5037997;28;20995;-80
2022/10/02 00:56:52;;;;;;;9.33;3.60;;;12.50;99.90;;;;;;5037060;28;20439;-79
2022/10/02 00:59:34;;;;;;;6.90;2.90;;;12.50;99.90;;;;;;5037779;28;20434;-79
2022/10/02 01:02:10;;;;;;;9.63;3.23;;;12.50;99.90;;;;;;5038066;28;20439;-77
2022/10/02 01:04:40;;;;;;;6.87;3.30;;;12.40;99.90;;;;;;5035189;28;20470;-79
2022/10/02 01:07:11;;;;;;;6.67;3.13;;;12.40;99.90;;;;;;5033419;28;20465;-77
2022/10/02 01:09:40;;;;;;;8.40;4.00;;;12.40;99.90;;;;;;5034656;28;20526;-77
2022/10/02 01:12:09;;;;;;;8.20;3.37;;;12.50;99.90;;;;;;5032535;28;20467;-77
2022/10/02 01:14:39;;;;;;;8.53;3.73;;;12.40;99.90;;;;;;5034643;28;20457;-77
2022/10/02 01:17:22;;;;;;;8.43;3.77;;;12.40;99.90;;;;;;5033539;28;20447;-78
2022/10/02 01:19:51;;;;;;;8.43;3.80;;;12.40;99.90;;;;;;5035303;28;20424;-77
2022/10/02 01:22:31;;;;;;;8.23;4.37;;;12.40;99.90;;;;;;5033997;28;20443;-79
2022/10/02 01:25:04;;;;;;;7.70;4.30;;;12.40;99.90;;;;;;5034990;28;20462;-78
2022/10/02 01:27:34;;;;;;;9.77;5.10;;;12.40;99.90;;;;;;5035341;28;20429;-77
2022/10/02 01:30:08;;;;;;;9.27;4.97;;;12.40;99.90;;;;;;5033120;28;20791;-77
2022/10/02 01:32:42;;;;;;;8.20;4.57;;;12.40;99.90;;;;;;5033283;28;20463;-77
2022/10/02 01:35:11;;;;;;;11.07;5.10;;;12.40;99.90;;;;;;5033496;28;20467;-77
2022/10/02 01:37:43;;;;;;;10.33;5.60;;;12.40;99.90;;;;;;5035171;28;20564;-78
2022/10/02 01:40:26;;;;;;;11.70;5.70;;;12.40;99.90;;;;;;5033642;28;20466;-76
2022/10/02 01:42:57;;;;;;;11.10;5.70;;;12.40;99.90;;;;;;5033255;28;20450;-78
2022/10/02 01:45:47;;;;;;;9.23;5.93;;;12.40;99.90;;;;;;5035832;28;20420;-78
2022/10/02 01:48:22;;;;;;;11.27;6.73;;;12.40;99.90;;;;;;5033160;28;20457;-78
2022/10/02 01:51:01;;;;;;;13.83;7.17;;;12.40;99.90;;;;;;5034884;28;20534;-78
2022/10/02 01:53:38;;;;;;;11.53;7.17;;;12.40;99.90;;;;;;5034614;28;20525;-78
2022/10/02 01:56:17;;;;;;;11.00;6.33;;;12.40;99.90;;;;;;5033845;28;20447;-78
2022/10/02 01:58:54;;;;;;;9.20;5.83;;;12.40;99.90;;;;;;5033585;28;20445;-77
2022/10/02 02:01:34;;;;;;;11.70;5.10;;;12.40;99.90;;;;;;5033953;28;20438;-78
2022/10/02 02:04:12;;;;;;;8.70;4.90;;;12.40;99.90;;;;;;5034098;28;20995;-78
2022/10/02 02:06:49;;;;;;;10.87;4.67;;;12.40;99.90;;;;;;5037408;28;20423;-76
2022/10/02 02:09:22;;;;;;;7.87;3.70;;;12.40;99.90;;;;;;5034009;28;20439;-78
2022/10/02 02:11:59;;;;;;;7.93;4.17;;;12.40;99.90;;;;;;5035954;28;20423;-78
2022/10/02 02:14:32;;;;;;;9.53;4.53;;;12.40;99.90;;;;;;5034516;28;20459;-77
2022/10/02 02:17:08;;;;;;;10.43;4.50;;;12.40;99.90;;;;;;5033195;28;20447;-78
2022/10/02 02:19:42;;;;;;;10.20;4.60;;;12.40;99.90;;;;;;5034429;28;20437;-78
2022/10/02 02:22:16;;;;;;;9.23;4.90;;;12.40;99.90;;;;;;5033140;28;20439;-77
2022/10/02 02:24:51;;;;;;;9.50;4.73;;;12.40;99.90;;;;;;5034073;28;20909;-77
2022/10/02 02:27:25;;;;;;;9.53;5.07;;;12.40;99.90;;;;;;5034571;28;20426;-77
2022/10/02 02:29:58;;;;;;;8.87;5.60;;;12.30;99.90;;;;;;5034869;28;20977;-77
2022/10/02 02:32:32;;;;;;;7.37;5.50;;;12.30;99.90;;;;;;5032950;28;20471;-76
2022/10/02 02:35:05;;;;;;;9.07;5.40;;;12.30;99.90;;;;;;5032532;28;20550;-76
2022/10/02 02:37:37;;;;;;;11.10;6.13;;;12.30;99.90;;;;;;5033209;28;20423;-77
2022/10/02 02:40:09;;;;;;;14.97;7.00;;;12.30;99.90;;;;;;5034257;28;20442;-76
2022/10/02 02:42:42;;;;;;;10.70;7.03;;;12.30;99.90;;;;;;5037057;28;20477;-78
2022/10/02 02:45:15;;;;;;;9.47;7.23;;;12.30;99.90;;;;;;5034939;28;20903;-77
2022/10/02 02:47:48;;;;;;;15.53;8.10;;;12.20;99.90;;;;;;5035005;28;20443;-78
2022/10/02 02:50:21;;;;;;;14.10;7.80;;;12.20;99.90;;;;;;5035708;28;20450;-78
2022/10/02 02:52:54;;;;;;;14.50;8.03;;;12.20;99.90;;;;;;5035062;28;20956;-78
2022/10/02 02:55:27;;;;;;;15.90;8.50;;;12.20;99.90;;;;;;5033948;28;20892;-78
2022/10/02 02:58:02;;;;;;;15.57;8.50;;;12.20;99.90;;;;;;5033521;28;20420;-76
2022/10/02 03:00:30;;;;;;;12.10;8.00;;;12.20;99.90;;;;;;5034684;28;20434;-78
2022/10/02 03:02:59;;;;;;;17.20;9.10;;;12.20;99.90;;;;;;5032262;28;20443;-77
2022/10/02 03:05:29;;;;;;;12.20;8.67;;;12.20;99.90;;;;;;5034115;28;20439;-78
2022/10/02 03:08:01;;;;;;;13.07;9.00;;;12.20;99.90;;;;;;5033774;28;20434;-77
2022/10/02 03:10:39;;;;;;;16.87;8.47;;;12.20;99.90;;;;;;5032519;28;20438;-77
2022/10/02 03:13:28;;;;;;;14.97;9.40;;;12.10;99.90;;;;;;5032613;28;20834;-77
2022/10/02 03:16:10;;;;;;;22.03;9.87;;;12.10;99.90;;;;;;5032673;28;20441;-77
2022/10/02 03:18:56;;;;;;;14.77;10.60;;;12.10;99.90;;;;;;5034127;28;20450;-77
2022/10/02 03:21:30;;;;;;;19.97;11.70;;;12.10;99.90;;;;;;5033839;28;20493;-78
2022/10/02 03:24:06;;;;;;;15.80;11.40;;;12.10;99.90;;;;;;5033745;28;20549;-77
2022/10/02 03:26:40;;;;;;;13.17;11.37;;;12.10;99.90;;;;;;5032844;28;20435;-77
2022/10/02 03:29:15;;;;;;;16.13;11.30;;;12.10;99.90;;;;;;5032914;28;20452;-78
2022/10/02 03:31:44;;;;;;;15.97;11.33;;;12.10;99.90;;;;;;5032547;28;20902;-77
2022/10/02 03:34:13;;;;;;;17.47;11.50;;;12.10;99.90;;;;;;5033602;28;20884;-77
2022/10/02 03:36:41;;;;;;;15.93;10.93;;;12.10;99.90;;;;;;5035557;28;20462;-77
2022/10/02 03:39:10;;;;;;;15.40;11.80;;;12.10;99.90;;;;;;5036284;28;20455;-77
2022/10/02 03:41:54;;;;;;;15.13;12.53;;;12.10;99.90;;;;;;5036188;28;20438;-77
2022/10/02 03:44:24;;;;;;;18.73;12.60;;;12.10;99.90;;;;;;5036126;28;20463;-77
2022/10/02 03:46:52;;;;;;;20.93;11.40;;;12.10;99.90;;;;;;5035924;28;20994;-77
2022/10/02 03:49:20;;;;;;;13.60;10.50;;;12.10;99.90;;;;;;5037067;28;20470;-77
2022/10/02 03:51:48;;;;;;;16.93;11.20;;;12.10;99.90;;;;;;5036016;28;20868;-77
2022/10/02 03:54:19;;;;;;;14.70;9.80;;;12.10;99.90;;;;;;5035681;28;20482;-77
2022/10/02 03:56:54;;;;;;;14.87;9.77;;;12.10;99.90;;;;;;5035823;28;20442;-77
2022/10/02 03:59:43;;;;;;;15.70;10.30;;;12.00;99.90;;;;;;5035746;28;20442;-77
2022/10/02 04:02:21;;;;;;;12.23;9.40;;;12.00;99.90;;;;;;5037189;28;20427;-78
2022/10/02 04:04:56;;;;;;;16.33;11.07;;;12.00;99.90;;;;;;5035667;28;20467;-77
2022/10/02 04:07:30;;;;;;;13.63;9.70;;;12.00;99.90;;;;;;5035951;28;20462;-78
2022/10/02 04:10:11;;;;;;;17.60;11.23;;;12.00;99.90;;;;;;5037604;28;20415;-77
2022/10/02 04:12:45;;;;;;;14.70;10.27;;;12.00;99.90;;;;;;5036892;28;20901;-77
2022/10/02 04:15:23;;;;;;;16.17;9.40;;;12.00;99.90;;;;;;5036988;28;20561;-78
2022/10/02 04:17:55;;;;;;;13.03;9.33;;;12.00;99.90;;;;;;5037469;28;20423;-77
2022/10/02 04:20:32;;;;;;;12.73;9.30;;;12.00;99.90;;;;;;5035664;28;20443;-77
2022/10/02 04:23:06;;;;;;;18.13;10.07;;;12.00;99.90;;;;;;5036763;28;20415;-77
2022/10/02 04:25:39;;;;;;;13.73;9.53;;;12.00;99.90;;;;;;5037388;28;20454;-77
2022/10/02 04:28:13;;;;;;;14.67;8.43;;;12.00;99.90;;;;;;5036997;28;20426;-77
2022/10/02 04:30:43;;;;;;;14.97;9.30;;;12.00;99.90;;;;;;5036835;28;20955;-78
2022/10/02 04:33:13;;;;;;;15.20;8.63;;;12.00;99.90;;;;;;5035659;28;21039;-77
2022/10/02 04:35:52;;;;;;;11.93;8.10;;;12.00;99.90;;;;;;5035340;28;20446;-77
2022/10/02 04:38:37;;;;;;;16.83;8.50;;;12.00;99.90;;;;;;5036369;28;20419;-77
2022/10/02 04:41:21;;;;;;;16.27;7.67;;;12.00;99.90;;;;;;5035284;28;20439;-77
2022/10/02 04:44:03;;;;;;;14.87;7.77;;;12.00;99.90;;;;;;5035412;28;20475;-77
2022/10/02 04:46:58;;;;;;;13.43;7.30;;;12.00;99.90;;;;;;5035971;28;20820;-78
2022/10/02 04:49:49;;;;;;;13.40;6.93;;;12.00;99.90;;;;;;5035156;28;20449;-77
2022/10/02 04:52:47;;;;;;;18.53;7.93;;;12.00;99.90;;;;;;5028381;28;20455;-78
2022/10/02 04:55:45;;;;;;;13.43;8.03;;;12.00;99.90;;;;;;5036863;28;20956;-78
2022/10/02 04:58:29;;;;;;;13.17;7.20;;;12.00;99.90;;;;;;5034879;28;20443;-78
2022/10/02 05:01:08;;;;;;;19.63;6.70;;;12.00;99.90;;;;;;5036362;28;20435;-77
2022/10/02 05:03:57;;;;;;;14.50;6.80;;;12.10;99.90;;;;;;5034995;28;20992;-78
2022/10/02 05:06:49;;;;;;;10.77;6.17;;;12.10;99.90;;;;;;5036662;28;20443;-78
2022/10/02 05:09:25;;;;;;;16.23;6.13;;;12.10;99.90;;;;;;5034923;28;20447;-78
2022/10/02 05:12:24;;;;;;;13.57;6.17;;;12.10;99.90;;;;;;5034488;28;20435;-78
2022/10/02 05:15:11;;;;;;;13.50;6.63;;;12.10;99.90;;;;;;5034408;28;20980;-78
2022/10/02 05:17:57;;;;;;;15.93;6.43;;;12.20;99.90;;;;;;5034694;28;20435;-78
2022/10/02 05:20:52;;;;;;;14.03;6.40;;;12.20;99.90;;;;;;5035387;28;20542;-79
2022/10/02 05:23:34;;;;;;;15.80;6.73;;;12.20;99.90;;;;;;5033790;28;20980;-77
2022/10/02 05:26:14;;;;;;;14.40;5.83;;;12.20;99.90;;;;;;5033657;28;20447;-76
2022/10/02 05:29:02;;;;;;;14.67;6.50;;;12.20;99.90;;;;;;5035224;28;20419;-79
2022/10/02 05:31:41;;;;;;;12.87;6.40;;;12.20;99.90;;;;;;5034287;28;20463;-79
2022/10/02 05:34:30;;;;;;;13.43;7.40;;;12.30;99.90;;;;;;5034863;28;20478;-79
2022/10/02 05:37:15;;;;;;;14.50;6.80;;;12.30;99.90;;;;;;5036211;28;20427;-76
2022/10/02 05:39:54;;;;;;;12.13;6.00;;;12.30;99.90;;;;;;5036517;28;20449;-78
2022/10/02 05:42:31;;;;;;;13.53;5.97;;;12.30;99.90;;;;;;5036069;28;20493;-77
2022/10/02 05:45:04;;;;;;;11.67;5.50;;;12.20;99.90;;;;;;5037008;28;20459;-78
2022/10/02 05:47:36;;;;;;;10.97;5.67;;;12.30;99.90;;;;;;5035868;28;20534;-79
2022/10/02 05:50:16;;;;;;;12.40;5.63;;;12.20;99.90;;;;;;5035081;28;20447;-78
2022/10/02 05:52:53;;;;;;;12.63;5.90;;;12.20;99.90;;;;;;5037634;28;20442;-77
2022/10/02 05:55:28;;;;;;;14.83;5.90;;;12.20;99.90;;;;;;5035095;28;20521;-78
2022/10/02 05:58:01;;;;;;;13.67;5.57;;;12.20;99.90;;;;;;5036359;28;20426;-77
2022/10/02 06:00:37;;;;;;;12.70;5.03;;;12.20;99.90;;;;;;5034688;28;20439;-77
2022/10/02 06:03:14;;;;;;;13.23;5.40;;;12.20;99.90;;;;;;5034306;28;20933;-77
2022/10/02 06:05:53;;;;;;;10.00;5.07;;;12.20;99.90;;;;;;5033142;28;20442;-77
2022/10/02 06:08:30;;;;;;;13.03;5.63;;;12.20;99.90;;;;;;5034553;28;20483;-78
2022/10/02 06:11:04;;;;;;;13.33;4.70;;;12.20;99.90;;;;;;5034581;28;20439;-77
2022/10/02 06:13:35;;;;;;;15.80;6.47;;;12.20;99.90;;;;;;5032902;28;20466;-77
2022/10/02 06:16:10;;;;;;;9.70;5.00;;;12.20;99.90;;;;;;5034431;28;20462;-77
2022/10/02 06:18:41;;;;;;;9.43;4.73;;;12.20;99.90;;;;;;5036450;28;20419;-78
2022/10/02 06:21:23;;;;;;;10.30;4.87;;;12.30;99.90;;;;;;5036282;28;20475;-77
2022/10/02 06:23:59;;;;;;;10.77;5.03;;;12.30;99.90;;;;;;5034279;28;20458;-77
2022/10/02 06:26:33;;;;;;;13.13;5.40;;;12.30;99.90;;;;;;5034822;28;20434;-77
2022/10/02 06:29:05;;;;;;;14.40;5.40;;;12.30;99.90;;;;;;5034890;28;20453;-79
2022/10/02 06:31:41;;;;;;;11.27;5.20;;;12.30;99.90;;;;;;5034789;28;20469;-78
2022/10/02 06:34:12;;;;;;;11.27;5.17;;;12.30;99.90;;;;;;5035668;28;20544;-77
2022/10/02 06:37:10;;;;;;;10.60;5.27;;;12.30;99.90;;;;;;5034363;28;20489;-78
2022/10/02 06:40:03;;;;;;;12.27;6.17;;;12.30;99.90;;;;;;5034497;28;20431;-77
2022/10/02 06:42:42;;;;;;;10.17;4.77;;;12.30;99.90;;;;;;5033757;28;20443;-77
2022/10/02 06:45:18;;;;;;;12.83;5.70;;;12.30;99.90;;;;;;5032941;28;20467;-77
2022/10/02 06:48:00;;;;;;;12.93;6.10;;;12.40;99.90;;;;;;5033797;28;20446;-78
2022/10/02 06:50:43;;;;;;;9.30;4.90;;;12.30;99.90;;;;;;5034361;28;20446;-78
2022/10/02 06:53:33;;;;;;;16.60;5.40;;;12.40;99.90;;;;;;5034538;28;20448;-78
2022/10/02 06:56:15;;;;;;;11.97;5.10;;;12.40;99.90;;;;;;5035698;28;20485;-78
2022/10/02 06:59:03;;;;;;;14.93;6.20;;;12.50;99.90;;;;;;5035578;28;20522;-78
2022/10/02 07:01:41;;;;;;;7.00;4.87;;;12.50;99.90;;;;;;5035700;28;20439;-77
2022/10/02 07:04:29;;;;;;;13.60;5.70;;;12.60;99.90;;;;;;5036304;28;20493;-77
2022/10/02 07:07:12;;;;;;;10.70;5.00;;;12.60;99.90;;;;;;5034769;28;20443;-77
2022/10/02 07:10:04;;;;;;;10.77;5.30;;;12.70;99.90;;;;;;5034616;28;20489;-78
2022/10/02 07:12:48;;;;;;;10.23;5.10;;;12.70;99.90;;;;;;5037980;28;20996;-78
2022/10/02 07:15:41;;;;;;;10.67;4.60;;;12.70;99.90;;;;;;5037271;28;20816;-76
2022/10/02 07:18:18;;;;;;;8.27;4.10;;;12.80;99.90;;;;;;5037298;28;20434;-77
2022/10/02 07:20:58;;;;;;;10.27;4.80;;;12.80;99.90;;;;;;5038126;28;20863;-77
2022/10/02 07:23:44;;;;;;;9.20;4.27;;;12.80;99.90;;;;;;5036785;28;20498;-77
2022/10/02 07:26:37;;;;;;;9.43;4.80;;;12.80;99.90;;;;;;5036425;28;20442;-78
2022/10/02 07:29:20;;;;;;;10.70;4.13;;;12.90;99.90;;;;;;5037101;28;20446;-79
2022/10/02 07:32:00;;;;;;;11.37;4.30;;;12.90;99.90;;;;;;5038514;28;20457;-78
2022/10/02 07:34:39;;;;;;;12.50;4.40;;;12.90;99.90;;;;;;5038447;28;20462;-78
2022/10/02 07:37:21;;;;;;;15.07;4.17;;;13.00;99.90;;;;;;5036936;28;20453;-77
2022/10/02 07:40:09;;;;;;;10.10;4.23;;;13.00;99.90;;;;;;5036643;28;20450;-77
2022/10/02 07:42:55;;;;;;;17.03;5.03;;;13.00;99.90;;;;;;5036948;28;20446;-77
2022/10/02 07:45:36;;;;;;;9.90;4.40;;;13.10;99.90;;;;;;5036721;28;20435;-78
2022/10/02 07:48:30;;;;;;;13.03;5.50;;;13.10;99.90;;;;;;5037892;28;20442;-78
2022/10/02 07:54:46;;;;;;;14.10;4.67;;;13.20;99.90;;;;;;4981707;28;20475;-78
2022/10/02 07:57:32;;;;;;;9.43;3.90;;;13.30;99.90;;;;;;5035853;28;20983;-78
2022/10/02 08:00:06;;;;;;;11.10;4.80;;;13.40;99.90;;;;;;5037072;28;20465;-78
2022/10/02 08:02:48;;;;;;;12.33;5.30;;;13.60;99.90;;;;;;5037747;28;20450;-78
2022/10/02 08:05:19;;;;;;;12.40;4.50;;;13.70;99.90;;;;;;5039033;28;20478;-79
2022/10/02 08:07:51;;;;;;;14.07;3.97;;;13.80;99.90;;;;;;5037574;28;20834;-79
2022/10/02 08:10:25;;;;;;;10.80;5.00;;;13.90;99.90;;;;;;5039037;28;20431;-78
2022/10/02 08:13:03;;;;;;;14.30;5.90;;;14.10;99.90;;;;;;5038703;28;20427;-80
2022/10/02 08:15:37;;;;;;;10.80;3.97;;;14.10;99.90;;;;;;5036513;28;20471;-78
2022/10/02 08:18:17;;;;;;;14.40;4.00;;;14.20;99.90;;;;;;5036687;28;20932;-78
2022/10/02 08:21:05;;;;;;;7.10;3.57;;;14.30;99.90;;;;;;5037931;28;20908;-79
2022/10/02 08:23:40;;;;;;;14.30;4.07;;;14.30;99.90;;;;;;5036591;28;20463;-79
2022/10/02 08:26:14;;;;;;;10.10;3.53;;;14.40;99.90;;;;;;5036480;28;20444;-80
2022/10/02 08:28:48;;;;;;;9.87;3.33;;;14.40;99.90;;;;;;5036251;28;20443;-77
2022/10/02 08:31:16;;;;;;;9.57;3.20;;;14.40;99.90;;;;;;5035813;28;20495;-78
2022/10/02 08:33:45;;;;;;;12.07;3.73;;;14.50;99.90;;;;;;5036262;28;20505;-79
2022/10/02 08:36:49;;;;;;;8.60;4.23;;;14.60;99.90;;;;;;5037551;28;20467;-78
2022/10/02 08:39:45;;;;;;;11.80;3.60;;;14.70;99.90;;;;;;5036114;28;20469;-78
2022/10/02 08:42:57;;;;;;;10.10;3.30;;;14.70;99.90;;;;;;5024059;28;20449;-79
2022/10/02 08:46:07;;;;;;;11.50;4.13;;;14.70;99.90;;;;;;5036643;28;20427;-81
2022/10/02 08:49:15;;;;;;;11.33;3.90;;;14.70;99.90;;;;;;5039635;28;20972;-78
2022/10/02 08:52:23;;;;;;;11.10;4.10;;;14.80;99.90;;;;;;4999854;28;20804;-79
2022/10/02 08:55:12;;;;;;;14.47;4.00;;;14.90;99.90;;;;;;5038016;28;20469;-79
2022/10/02 08:58:13;;;;;;;12.40;3.93;;;14.90;99.90;;;;;;5039052;28;20434;-79
2022/10/02 09:00:54;;;;;;;12.07;4.97;;;14.90;99.90;;;;;;5038822;28;20423;-79
2022/10/02 09:04:09;;;;;;;9.27;3.73;;;14.90;99.90;;;;;;5037916;28;20903;-79
2022/10/02 09:07:03;;;;;;;9.67;3.10;;;14.90;99.90;;;;;;5038406;28;20813;-79
2022/10/02 09:10:19;;;;;;;12.03;3.77;;;14.90;99.90;;;;;;5038899;28;20423;-79
2022/10/02 09:13:16;;;;;;;12.83;3.90;;;14.90;99.90;;;;;;4947155;28;20450;-79
2022/10/02 09:15:46;;;;;;;11.93;3.50;;;14.90;99.90;;;;;;4977413;28;21010;-80
2022/10/02 09:18:31;;;;;;;15.30;4.50;;;14.90;99.90;;;;;;5019550;28;20443;-80
2022/10/02 09:21:16;;;;;;;9.17;3.40;;;14.90;99.90;;;;;;5038680;28;20430;-80
2022/10/02 09:24:20;;;;;;;8.57;2.30;;;14.90;99.90;;;;;;5038029;28;20992;-79
2022/10/02 09:27:06;;;;;;;7.87;2.80;;;14.90;99.90;;;;;;5036560;28;20920;-79
2022/10/02 09:30:26;;;;;;;7.70;2.60;;;14.90;99.90;;;;;;5037993;28;20430;-80
2022/10/02 09:33:28;;;;;;;12.03;2.63;;;15.10;99.90;;;;;;4946846;28;20832;-79
2022/10/02 09:36:22;;;;;;;8.80;2.67;;;15.20;99.90;;;;;;5036326;28;20466;-79
2022/10/02 09:39:39;;;;;;;12.70;2.73;;;15.30;99.90;;;;;;5038043;28;20415;-80
2022/10/02 09:42:41;;;;;;;8.40;2.47;;;15.30;99.90;;;;;;5038281;28;20514;-80
2022/10/02 09:45:47;;;;;;;7.20;2.10;;;15.30;99.90;;;;;;5036532;28;21065;-79
2022/10/02 09:48:53;;;;;;;6.57;1.93;;;15.40;99.90;;;;;;5013427;28;20414;-80
2022/10/02 09:51:56;;;;;;;8.00;3.20;;;15.40;99.90;;;;;;5035920;28;20538;-79
2022/10/02 09:55:03;;;;;;;6.93;3.10;;;15.40;99.90;;;;;;4996835;28;20473;-79
2022/10/02 09:58:07;;;;;;;6.30;3.10;;;15.50;99.90;;;;;;5035744;28;21027;-80
2022/10/02 10:01:10;;;;;;;9.63;2.50;;;15.50;99.90;;;;;;5036501;28;20509;-80
2022/10/02 10:04:07;;;;;;;5.10;2.80;;;15.50;99.90;;;;;;4982753;28;20484;-80
2022/10/02 10:06:59;;;;;;;8.67;2.00;;;15.50;99.90;;;;;;5031342;28;20600;-79
2022/10/02 10:10:01;;;;;;;9.40;2.40;;;15.60;99.90;;;;;;5035832;28;20454;-80
2022/10/02 10:13:21;;;;;;;7.80;2.43;;;15.60;99.90;;;;;;5035851;28;20500;-80
2022/10/02 10:16:17;;;;;;;4.73;1.93;;;15.70;99.90;;;;;;5035255;28;20443;-79
2022/10/02 10:19:02;;;;;;;10.57;2.40;;;15.70;99.90;;;;;;5035986;28;20417;-78
2022/10/02 10:22:09;;;;;;;6.03;2.07;;;15.80;99.90;;;;;;5036031;28;20421;-79
2022/10/02 10:25:14;;;;;;;7.33;2.10;;;15.80;99.90;;;;;;5036036;28;20467;-80
2022/10/02 10:28:25;;;;;;;6.97;2.60;;;15.90;99.90;;;;;;5035009;28;20454;-78
2022/10/02 10:31:25;;;;;;;8.83;2.30;;;16.00;99.90;;;;;;5035835;28;20470;-80
2022/10/02 10:34:24;;;;;;;5.20;1.63;;;16.10;99.90;;;;;;5036022;28;20478;-79
2022/10/02 10:40:08;;;;;;;6.43;1.93;;;16.20;99.90;;;;;;5043087;28;20479;-79
2022/10/02 10:43:00;;;;;;;5.23;1.90;;;16.20;99.90;;;;;;5044044;28;20455;-79
2022/10/02 10:45:58;;;;;;;6.63;1.83;;;16.30;99.90;;;;;;5043449;28;20952;-79
2022/10/02 10:48:34;;;;;;;8.77;2.70;;;16.40;99.90;;;;;;5042331;28;20438;-80
2022/10/02 10:51:23;;;;;;;8.30;2.70;;;16.50;99.90;;;;;;5041730;28;20485;-79
2022/10/02 10:54:21;;;;;;;6.50;2.30;;;16.60;99.90;;;;;;5038861;28;20473;-79
2022/10/02 10:56:53;;;;;;;11.80;2.50;;;16.60;99.90;;;;;;5039139;28;20570;-79
2022/10/02 10:59:59;;;;;;;7.80;2.20;;;16.50;99.90;;;;;;5040488;28;20893;-79
2022/10/02 11:02:59;;;;;;;7.93;2.63;;;16.50;99.90;;;;;;5039002;28;20459;-79
2022/10/02 11:06:02;;;;;;;9.57;2.90;;;16.60;99.90;;;;;;5038861;28;20435;-79
2022/10/02 11:09:10;;;;;;;8.30;2.07;;;16.60;99.90;;;;;;5039970;28;20914;-78
2022/10/02 11:11:54;;;;;;;5.97;2.67;;;16.60;99.90;;;;;;5040766;28;20434;-80
2022/10/02 11:14:34;;;;;;;6.97;2.93;;;16.70;99.90;;;;;;5038959;28;20859;-79
2022/10/02 11:17:18;;;;;;;13.60;3.17;;;16.70;99.90;;;;;;5040371;28;20433;-79
2022/10/02 11:20:04;;;;;;;8.60;2.60;;;16.80;99.90;;;;;;5040293;28;20423;-79
2022/10/02 11:22:43;;;;;;;8.93;2.53;;;16.90;99.90;;;;;;5038782;28;20421;-80
2022/10/02 11:25:30;;;;;;;9.57;3.23;;;17.00;99.90;;;;;;5038782;28;20485;-80
2022/10/02 11:28:22;;;;;;;7.30;3.00;;;17.00;99.90;;;;;;5038865;28;20455;-79
2022/10/02 11:31:08;;;;;;;7.50;2.53;;;17.10;99.90;;;;;;5038985;28;20534;-79
2022/10/02 11:34:03;;;;;;;6.57;2.20;;;17.10;99.90;;;;;;5041244;28;20458;-78
2022/10/02 11:36:52;;;;;;;7.97;2.30;;;17.20;99.90;;;;;;5038258;28;20448;-78
2022/10/02 11:39:54;;;;;;;11.73;3.10;;;17.10;99.90;;;;;;5038774;28;20529;-80
2022/10/02 11:42:59;;;;;;;7.73;2.80;;;17.10;99.90;;;;;;5037822;28;20446;-77
2022/10/02 11:45:43;;;;;;;8.90;3.07;;;17.20;99.90;;;;;;5039542;28;20390;-80
2022/10/02 11:48:32;;;;;;;10.30;2.70;;;17.20;99.90;;;;;;5040436;28;20948;-80
2022/10/02 11:51:22;;;;;;;10.90;2.70;;;17.30;99.90;;;;;;5040080;28;20449;-79
2022/10/02 11:54:17;;;;;;;9.03;2.70;;;17.30;99.90;;;;;;5034276;28;20479;-79
2022/10/02 11:57:00;;;;;;;7.20;2.43;;;17.40;99.90;;;;;;5038475;28;20423;-79
2022/10/02 12:00:07;;;;;;;8.40;2.57;;;17.30;99.90;;;;;;5041302;28;20439;-81
2022/10/02 12:02:46;;;;;;;6.63;2.47;;;17.40;99.90;;;;;;5043914;28;20414;-80
2022/10/02 12:05:26;;;;;;;8.50;3.07;;;17.40;99.90;;;;;;5044036;28;20494;-80
2022/10/02 12:08:03;;;;;;;9.00;2.60;;;17.50;99.90;;;;;;5041180;28;20501;-80
2022/10/02 12:10:49;;;;;;;7.07;2.40;;;17.50;99.90;;;;;;5039229;28;20445;-79
2022/10/02 12:13:48;;;;;;;6.77;2.50;;;17.40;99.90;;;;;;5038762;28;20467;-79
2022/10/02 12:16:27;;;;;;;8.53;2.73;;;17.40;99.90;;;;;;5022002;28;20430;-79
2022/10/02 12:19:16;;;;;;;7.33;2.13;;;17.30;99.90;;;;;;5036289;28;20553;-77
2022/10/02 12:27:51;;;;;;;6.30;2.50;;;16.90;99.90;;;;;;5034350;28;20435;-76
2022/10/02 12:30:21;;;;;;;6.43;2.30;;;16.70;99.90;;;;;;5034701;28;20433;-76
2022/10/02 12:33:09;;;;;;;6.90;2.63;;;16.50;99.90;;;;;;5034033;28;20425;-76
2022/10/02 12:36:10;;;;;;;7.00;2.63;;;16.40;99.90;;;;;;5036074;28;20443;-78
2022/10/02 12:38:54;;;;;;;6.37;2.67;;;16.20;99.90;;;;;;5033554;28;20456;-78
2022/10/02 12:41:41;;;;;;;9.20;2.80;;;16.10;99.90;;;;;;5037146;28;20756;-77
2022/10/02 12:44:36;;;;;;;8.70;2.10;;;15.90;99.90;;;;;;5034020;28;20480;-76
2022/10/02 12:47:31;;;;;;;6.63;1.90;;;15.80;99.90;;;;;;5002191;28;20425;-76
2022/10/02 12:50:09;;;;;;;5.40;2.30;;;15.70;99.90;;;;;;5033922;28;20454;-75
2022/10/02 12:53:09;;;;;;;11.27;2.57;;;15.60;99.90;;;;;;5034045;28;20447;-76
2022/10/02 12:55:55;;;;;;;6.70;2.50;;;15.60;99.90;;;;;;5034021;28;20445;-76
2022/10/02 12:58:35;;;;;;;7.67;2.90;;;15.50;99.90;;;;;;5035186;28;20541;-77
2022/10/02 13:02:09;;;;;;;5.20;1.90;;;15.50;99.90;;;;;;5034924;28;20419;-77
2022/10/02 13:05:05;;;;;;;7.73;2.97;;;15.50;99.90;;;;;;4974459;28;20472;-77
2022/10/02 13:07:58;;;;;;;5.37;2.10;;;15.50;99.90;;;;;;4973876;28;20401;-77
2022/10/02 13:10:30;;;;;;;5.67;2.70;;;15.60;99.90;;;;;;5033538;28;20428;-77
2022/10/02 13:13:17;;;;;;;6.90;2.27;;;15.60;99.90;;;;;;5034849;28;20438;-77
2022/10/02 13:15:53;;;;;;;10.40;3.13;;;15.70;99.90;;;;;;5033595;28;20443;-77
2022/10/02 13:18:46;;;;;;;7.43;2.43;;;15.80;99.90;;;;;;5033347;28;20470;-76
2022/10/02 13:21:22;;;;;;;9.50;3.03;;;15.80;99.90;;;;;;5034734;28;20481;-77
2022/10/02 13:24:02;;;;;;;7.43;2.90;;;15.90;99.90;;;;;;5033583;28;20470;-77
2022/10/02 13:26:41;;;;;;;6.73;2.70;;;15.90;99.90;;;;;;5033756;28;20435;-78
2022/10/02 13:29:42;;;;;;;6.87;2.80;;;15.90;99.90;;;;;;5033832;28;20450;-77
2022/10/02 13:32:38;;;;;;;7.57;2.80;;;15.90;99.90;;;;;;5031968;28;20469;-78
2022/10/02 13:35:27;;;;;;;8.97;2.97;;;16.00;99.90;;;;;;5033514;28;20485;-78
2022/10/02 13:38:09;;;;;;;6.50;2.63;;;16.10;99.90;;;;;;5035392;28;20466;-77
2022/10/02 13:40:45;;;;;;;8.80;3.10;;;16.10;99.90;;;;;;5034101;28;20830;-77
2022/10/02 13:43:30;;;;;;;8.83;2.90;;;16.10;99.90;;;;;;5033697;28;20425;-78
2022/10/02 13:46:07;;;;;;;8.40;2.93;;;16.20;99.90;;;;;;5034452;28;20455;-77
2022/10/02 13:48:53;;;;;;;9.23;3.03;;;16.20;99.90;;;;;;5034937;28;20439;-78
2022/10/02 13:51:31;;;;;;;11.70;3.53;;;16.30;99.90;;;;;;5033705;28;20437;-77
2022/10/02 13:54:23;;;;;;;16.33;4.40;;;16.40;99.90;;;;;;5033926;28;20459;-78
2022/10/02 13:56:56;;;;;;;8.73;3.07;;;16.50;99.90;;;;;;5034164;28;20394;-76
2022/10/02 13:59:44;;;;;;;10.90;3.30;;;16.50;99.90;;;;;;5033712;28;20987;-77
2022/10/02 14:02:28;;;;;;;15.37;3.10;;;16.60;99.90;;;;;;5033870;28;20455;-78
2022/10/02 14:05:04;;;;;;;8.83;3.10;;;16.50;99.90;;;;;;5033564;28;20467;-78
2022/10/02 14:07:54;;;;;;;8.93;3.20;;;16.60;99.90;;;;;;5034179;28;20420;-78
2022/10/02 14:10:34;;;;;;;13.00;3.20;;;16.60;99.90;;;;;;5034145;28;20521;-77
2022/10/02 14:13:18;;;;;;;16.17;3.40;;;16.70;99.90;;;;;;5035301;28;21046;-78
2022/10/02 14:15:59;;;;;;;9.00;3.00;;;16.70;99.90;;;;;;5035225;28;20528;-77